• Join FlightAware (Why Join?)
  • Login
  • US Flag 
10:12AM EDT


 

Airport Tracker/Info


-or-


 

Live Flight TrackerFlight Track Log ✈ SKW5621 ✈ 10-May-2013 ✈ KSBA - KDEN

Flight Track Log - Related Links

Times and Time Zones

All times are in EDT time to prevent confusion due to time zone crossing. See the SKW5621 flight status page for this flight to view local times or setup timezone preferences in your user account.

Time Position Orientation Groundspeed Altitude Reporting Facility
EDT Latitude Longitude Course Direction KTS MPH feet Rate Location/Type
09:12AM 34.4258 -119.8694 107° East 162 186 700  Level Los Angeles Center
09:13AM 34.4297 -119.9153 276° West 194 223 1,900 1,860 Climbing Los Angeles Center
09:13AM 34.4153 -119.9483 242° Southwest 213 245 3,000 2,460 Climbing Los Angeles Center
09:14AM 34.3850 -119.9533 188° South 245 282 4,400 2,280 Climbing Los Angeles Center
09:15AM 34.2913 -119.4653 107° East  Level FlightAware Approximate
09:15AM 34.3236 -119.9231 158° South 240 276 6,600  Level Los Angeles Center
09:16AM 34.2590 -119.3360 107° East  Level FlightAware Approximate
09:16AM 34.2589 -119.8764 149° Southeast 267 307 8,300  Level Los Angeles Center
09:17AM 34.2267 -119.2067 107° East  Level FlightAware Approximate
09:17AM 34.2500 -119.7825 97° East 285 328 10,400  Level Los Angeles Center
09:18AM 34.2411 -119.6869 96° East 287 330 12,100 1,740 Climbing Los Angeles Center
09:19AM 34.2342 -119.5836 95° East 307 353 14,000 1,620 Climbing Los Angeles Center
09:20AM 34.2236 -119.4789 97° East 314 361 15,500 1,620 Climbing Los Angeles Center
09:21AM 34.2533 -119.3758 71° East 329 379 17,300 1,380 Climbing Los Angeles Center
09:22AM 34.2814 -119.2700 72° East 330 380 18,400 1,080 Climbing Los Angeles Center
09:23AM 34.3119 -119.1594 71° East 344 396 19,600 1,200 Climbing Los Angeles Center
09:24AM 34.3489 -119.0203 72° East 359 413 20,900 1,020 Climbing Los Angeles Center
09:25AM 34.3794 -118.9025 73° East 364 419 21,900 1,020 Climbing Los Angeles Center
09:26AM 34.4169 -118.7594 72° East 369 425 23,200 1,080 Climbing Los Angeles Center
09:27AM 34.4478 -118.6400 73° East 371 427 24,200 840 Climbing Los Angeles Center
09:28AM 34.4797 -118.5186 72° East 376 433 25,000 660 Climbing Los Angeles Center
09:29AM 34.5122 -118.3942 72° East 385 443 25,600 600 Climbing Los Angeles Center
09:30AM 34.5442 -118.2675 73° East 391 450 26,300 600 Climbing Los Angeles Center
09:31AM 34.5783 -118.1367 72° East 394 453 26,900 480 Climbing Los Angeles Center
09:32AM 34.6111 -118.0078 73° East 400 460 27,400 540 Climbing Los Angeles Center
09:33AM 34.6431 -117.8778 73° East 402 463 28,100 600 Climbing Los Angeles Center
09:34AM 34.6764 -117.7492 72° East 404 465 28,700 480 Climbing Los Angeles Center
09:36AM 34.7078 -117.6192 74° East 406 467 29,200 660 Climbing Los Angeles Center
09:37AM 34.7464 -117.4650 73° East 404 465 30,300 900 Climbing Los Angeles Center
09:38AM 34.7836 -117.3172 73° East 389 448 31,100 540 Climbing Los Angeles Center
09:39AM 34.8133 -117.1944 74° East 384 442 31,500 300 Climbing Los Angeles Center
09:40AM 34.8442 -117.0697 73° East 387 445 31,800 420 Climbing Los Angeles Center
09:41AM 34.8750 -116.9458 73° East 387 445 32,400 360 Climbing Los Angeles Center
09:42AM 34.9311 -116.8408 57° Northeast 385 443 32,600 240 Climbing Los Angeles Center
09:43AM 34.9972 -116.7439 50° Northeast 379 436 32,900 180 Climbing Los Angeles Center
09:44AM 35.0647 -116.6472 50° Northeast 378 435 33,000  Climbing Los Angeles Center
09:45AM 35.1475 -116.5272 50° Northeast 384 442 33,000  Level Los Angeles Center
09:46AM 35.2203 -116.4267 48° Northeast 394 453 33,000  Level Los Angeles Center
09:47AM 35.2914 -116.3244 50° Northeast 396 456 33,000  Level Los Angeles Center
09:48AM 35.3625 -116.2208 50° Northeast 398 458 33,000  Level Los Angeles Center
09:49AM 35.4331 -116.1147 51° Northeast 402 463 33,000  Level Los Angeles Center
09:50AM 35.5078 -116.0117 48° Northeast 404 465 33,000  Level Los Angeles Center
09:51AM 35.5800 -115.9039 50° Northeast 409 471 33,000  Level Los Angeles Center
09:52AM 35.6569 -115.7906 50° Northeast 407 468 33,000  Level Los Angeles Center
09:53AM 35.7306 -115.6828 50° Northeast 411 473 33,000  Level Los Angeles Center
09:54AM 35.8164 -115.5542 51° Northeast 408 470 33,000  Level Los Angeles Center
09:55AM 35.8894 -115.4458 50° Northeast 412 474 33,000  Level Los Angeles Center
09:56AM 35.9619 -115.3389 50° Northeast 410 472 33,000  Level Los Angeles Center
09:57AM 36.0333 -115.2333 50° Northeast 404 465 33,000  Level Los Angeles Center
09:58AM 36.0933 -115.1128 58° Northeast 415 478 33,000  Level Los Angeles Center
09:59AM 36.1350 -114.9808 69° East 415 478 33,000  Level Los Angeles Center
10:00AM 36.1842 -114.8194 69° East 418 481 33,000  Level Los Angeles Center
10:01AM 36.2256 -114.6864 69° East 417 480 33,000  Level Los Angeles Center
10:02AM 36.2667 -114.5500 69° East 422 486 33,000  Level Los Angeles Center
10:03AM 36.3097 -114.4169 68° East 419 482 33,000  Level Los Angeles Center
10:04AM 36.3572 -114.2836 66° East 422 486 33,000  Level Los Angeles Center
10:05AM 36.4042 -114.1511 66° East 422 486 33,000  Level Los Angeles Center
10:06AM 36.4503 -114.0164 67° East 424 488 33,000  Level Los Angeles Center
10:07AM 36.4978 -113.8833 66° East 421 484 33,000  Level Los Angeles Center
10:08AM 36.5475 -113.7361 67° East 423 487 33,000  Level Los Angeles Center
10:09AM 36.5933 -113.6042 67° East 419 482 33,000  Level Los Angeles Center
10:11AM 36.6386 -113.4697 67° East 422 486 33,000  Level Los Angeles Center
10:12AM 36.6928 -113.3094 67° East 421 484 33,000  Level Los Angeles Center
10:13AM 36.7389 -113.1758 67° East 421 484 33,000  Level Los Angeles Center
10:14AM 36.7833 -113.0417 67° East 421 484 33,000  Level Los Angeles Center
10:15AM 36.8297 -112.9086 66° East 421 484 33,000  Level Los Angeles Center
10:16AM 36.8744 -112.7728 68° East 425 489 33,000  Level Los Angeles Center
10:17AM 36.9189 -112.6386 67° East 423 487 33,000  Level Los Angeles Center
10:18AM 36.9722 -112.4792 67° East 419 482 33,000  Level Los Angeles Center
10:19AM 37.0156 -112.3461 68° East 417 480 33,000  Level Los Angeles Center
10:20AM 37.0592 -112.2131 68° East 416 479 33,000  Level Los Angeles Center
10:21AM 37.0947 -112.1075 67° East 417 480 33,000  Level Denver Center
10:22AM 37.1469 -111.9475 68° East 416 479 33,000  Level Los Angeles Center
10:23AM 37.1897 -111.8142 68° East 415 478 33,000  Level Los Angeles Center
10:24AM 37.2311 -111.6814 69° East 412 474 33,000  Level Denver Center
10:25AM 37.2739 -111.5481 68° East 413 475 33,000  Level Denver Center
10:26AM 37.3183 -111.4139 67° East 417 480 33,000  Level Denver Center
10:27AM 37.3681 -111.2528 69° East 417 480 33,000  Level Denver Center
10:28AM 37.4103 -111.1178 68° East 415 478 33,000  Level Denver Center
10:29AM 37.4622 -110.9569 68° East 416 479 33,000  Level Denver Center
10:30AM 37.5039 -110.8211 69° East 417 480 33,000  Level Denver Center
10:31AM 37.5464 -110.6850 68° East 420 483 33,000  Level Denver Center
10:32AM 37.5886 -110.5494 69° East 418 481 33,000  Level Denver Center
10:33AM 37.6325 -110.4056 69° East 422 486 33,000  Level Denver Center
10:34AM 37.6794 -110.2506 69° East 423 487 33,000  Level Denver Center
10:35AM 37.7203 -110.1178 69° East 424 488 33,000  Level Denver Center
10:36AM 37.7611 -109.9850 69° East 423 487 33,000  Level Denver Center
10:37AM 37.8078 -109.8283 69° East 425 489 33,000  Level Denver Center
10:38AM 37.8478 -109.6950 69° East 424 488 33,000  Level Denver Center
10:39AM 37.8942 -109.5378 69° East 427 491 33,000  Level Denver Center
10:40AM 37.9339 -109.4050 69° East 423 487 33,000  Level Denver Center
10:42AM 37.9733 -109.2650 70° East  Level FlightAware Approximate
10:42AM 38.0197 -109.1122 70° East 429 494 33,000  Level Denver Center
10:44AM 38.0642 -108.9594 70° East 433 498 33,000  Level Denver Center
10:45AM 38.1028 -108.8264 70° East 426 490 33,000  Level Denver Center
10:46AM 38.1489 -108.6681 70° East 427 491 33,000  Level Denver Center
10:47AM 38.1881 -108.5322 70° East 430 495 33,000 -360 Level Denver Center
10:49AM 38.2722 -108.2392 70° East 428 493 32,000 -660 Descending Denver Center
10:50AM 38.3189 -108.0731 70° East 441 507 31,000 -540 Descending Denver Center
10:51AM 38.3586 -107.9344 70° East 438 504 31,000  Level Denver Center
10:52AM 38.4017 -107.7775 71° East 425 489 31,000  Level Denver Center
10:53AM 38.4397 -107.6411 70° East 428 493 31,000  Level Denver Center
10:54AM 38.5000 -107.4881 63° Northeast 431 496 31,000  Level Denver Center
10:55AM 38.5572 -107.3617 60° Northeast 432 497 31,000  Level Denver Center
10:56AM 38.6239 -107.2108 60° Northeast 436 502 31,000  Level Denver Center
10:57AM 38.6839 -107.0772 60° Northeast 441 507 31,000  Level Denver Center
10:58AM 38.7444 -106.9419 60° Northeast 440 506 31,000  Level Denver Center
10:59AM 38.8036 -106.8067 61° Northeast 439 505 31,000  Level Denver Center
11:00AM 38.8639 -106.6714 60° Northeast 440 506 31,000 -900 Level Denver Center
11:01AM 38.9339 -106.5192 59° Northeast 438 504 29,200 -1,800 Descending Denver Center
11:02AM 38.9919 -106.3936 59° Northeast 431 496 27,400 -1,200 Descending Denver Center
11:03AM 39.0561 -106.2567 59° Northeast 407 468 26,800 -1,020 Descending Denver Center
11:04AM 39.1089 -106.1361 61° Northeast 395 455 25,300 -1,440 Descending Denver Center
11:05AM 39.1625 -106.0158 60° Northeast 389 448 23,900 -1,380 Descending Denver Center
11:06AM 39.2142 -105.8981 60° Northeast 380 437 22,500 -1,380 Descending Denver Center
11:07AM 39.2633 -105.7847 61° Northeast 365 420 21,100 -1,500 Descending Denver Center
11:08AM 39.3214 -105.6528 60° Northeast 354 407 19,400 -1,320 Descending Denver Center
11:09AM 39.3697 -105.5417 61° Northeast 356 410 18,400 -1,140 Descending Denver Center
11:10AM 39.3983 -105.4131 74° East 360 414 17,100 -1,140 Descending Denver Center
11:11AM 39.4039 -105.2897 87° East 350 403 16,100 -1,200 Descending Denver Center
11:12AM 39.4100 -105.1600 86° East 339 390 14,700 -1,260 Descending Denver Center
11:14AM 39.4144 -105.0542 87° East 303 349 13,500 -840 Descending Denver Center
11:15AM 39.4192 -104.9528 87° East 269 310 13,000 -720 Descending Denver Center
11:16AM 39.4267 -104.8642 84° East 254 292 12,100 -1,020 Descending Denver Center
11:17AM 39.4725 -104.7914 51° Northeast 245 282 11,000 -1,020 Descending Denver Center
11:18AM 39.5228 -104.7356 41° Northeast 236 272 10,000 -960 Descending Denver Center
11:19AM 39.5792 -104.6939 30° Northeast 219 252 9,100 -540 Descending Denver Center
11:20AM 39.6344 -104.6653 22° Northeast 215 247 9,000 -120 Descending Denver Center